sensor_id;sensor_type;location;lat;lon;timestamp;P1;durP1;ratioP1;P2;durP2;ratioP2
61330;SDS011;71993;52.478;-1.918;2024-02-04T00:01:23;1.75;;;1.00;;
61330;SDS011;71993;52.478;-1.918;2024-02-04T00:03:56;1.20;;;0.90;;
61330;SDS011;71993;52.478;-1.918;2024-02-04T00:06:26;1.63;;;0.80;;
61330;SDS011;71993;52.478;-1.918;2024-02-04T00:08:57;2.78;;;1.13;;
61330;SDS011;71993;52.478;-1.918;2024-02-04T00:11:27;2.17;;;0.90;;
61330;SDS011;71993;52.478;-1.918;2024-02-04T00:13:58;1.73;;;1.00;;
61330;SDS011;71993;52.478;-1.918;2024-02-04T00:16:28;2.83;;;0.90;;
61330;SDS011;71993;52.478;-1.918;2024-02-04T00:19:02;1.35;;;0.93;;
61330;SDS011;71993;52.478;-1.918;2024-02-04T00:21:32;2.05;;;0.90;;
61330;SDS011;71993;52.478;-1.918;2024-02-04T00:24:03;2.20;;;1.00;;
61330;SDS011;71993;52.478;-1.918;2024-02-04T00:26:34;0.98;;;0.88;;
61330;SDS011;71993;52.478;-1.918;2024-02-04T00:29:04;1.95;;;0.80;;
61330;SDS011;71993;52.478;-1.918;2024-02-04T00:31:35;1.35;;;0.85;;
61330;SDS011;71993;52.478;-1.918;2024-02-04T00:34:08;1.92;;;0.88;;
61330;SDS011;71993;52.478;-1.918;2024-02-04T00:36:38;0.98;;;0.73;;
61330;SDS011;71993;52.478;-1.918;2024-02-04T00:39:09;1.95;;;0.90;;
61330;SDS011;71993;52.478;-1.918;2024-02-04T00:41:39;2.28;;;0.80;;
61330;SDS011;71993;52.478;-1.918;2024-02-04T00:44:10;2.20;;;0.80;;
61330;SDS011;71993;52.478;-1.918;2024-02-04T00:46:40;1.63;;;0.70;;
61330;SDS011;71993;52.478;-1.918;2024-02-04T00:49:14;1.38;;;0.82;;
61330;SDS011;71993;52.478;-1.918;2024-02-04T00:51:44;1.55;;;0.80;;
61330;SDS011;71993;52.478;-1.918;2024-02-04T00:54:15;1.08;;;0.90;;
61330;SDS011;71993;52.478;-1.918;2024-02-04T00:56:45;3.63;;;1.00;;
61330;SDS011;71993;52.478;-1.918;2024-02-04T00:59:16;0.77;;;0.65;;
61330;SDS011;71993;52.478;-1.918;2024-02-04T01:01:48;1.15;;;0.63;;
61330;SDS011;71993;52.478;-1.918;2024-02-04T01:04:21;1.50;;;0.70;;
61330;SDS011;71993;52.478;-1.918;2024-02-04T01:06:52;0.90;;;0.70;;
61330;SDS011;71993;52.478;-1.918;2024-02-04T01:09:23;1.85;;;0.90;;
61330;SDS011;71993;52.478;-1.918;2024-02-04T01:11:53;0.93;;;0.68;;
61330;SDS011;71993;52.478;-1.918;2024-02-04T01:14:24;2.00;;;0.80;;
61330;SDS011;71993;52.478;-1.918;2024-02-04T01:16:55;0.70;;;0.70;;
61330;SDS011;71993;52.478;-1.918;2024-02-04T01:19:28;1.30;;;0.63;;
61330;SDS011;71993;52.478;-1.918;2024-02-04T01:21:58;1.35;;;0.68;;
61330;SDS011;71993;52.478;-1.918;2024-02-04T01:24:29;1.65;;;0.85;;
61330;SDS011;71993;52.478;-1.918;2024-02-04T01:26:59;1.02;;;0.70;;
61330;SDS011;71993;52.478;-1.918;2024-02-04T01:29:30;1.20;;;0.57;;
61330;SDS011;71993;52.478;-1.918;2024-02-04T01:32:00;0.60;;;0.60;;
61330;SDS011;71993;52.478;-1.918;2024-02-04T01:34:35;2.75;;;0.60;;
61330;SDS011;71993;52.478;-1.918;2024-02-04T01:37:05;1.20;;;0.77;;
61330;SDS011;71993;52.478;-1.918;2024-02-04T01:39:36;0.70;;;0.60;;
61330;SDS011;71993;52.478;-1.918;2024-02-04T01:42:06;1.05;;;0.80;;
61330;SDS011;71993;52.478;-1.918;2024-02-04T01:44:37;0.90;;;0.60;;
61330;SDS011;71993;52.478;-1.918;2024-02-04T01:47:08;2.15;;;0.50;;
61330;SDS011;71993;52.478;-1.918;2024-02-04T01:49:42;1.35;;;0.60;;
61330;SDS011;71993;52.478;-1.918;2024-02-04T01:52:13;0.70;;;0.55;;
61330;SDS011;71993;52.478;-1.918;2024-02-04T01:54:43;0.63;;;0.60;;
61330;SDS011;71993;52.478;-1.918;2024-02-04T01:57:14;0.60;;;0.50;;
61330;SDS011;71993;52.478;-1.918;2024-02-04T01:59:45;0.55;;;0.55;;
61330;SDS011;71993;52.478;-1.918;2024-02-04T02:02:16;0.65;;;0.60;;
61330;SDS011;71993;52.478;-1.918;2024-02-04T02:04:49;0.93;;;0.45;;
61330;SDS011;71993;52.478;-1.918;2024-02-04T02:07:20;0.60;;;0.57;;
61330;SDS011;71993;52.478;-1.918;2024-02-04T02:09:52;0.95;;;0.77;;
61330;SDS011;71993;52.478;-1.918;2024-02-04T02:12:24;0.55;;;0.50;;
61330;SDS011;71993;52.478;-1.918;2024-02-04T02:14:56;0.63;;;0.45;;
61330;SDS011;71993;52.478;-1.918;2024-02-04T02:17:30;0.60;;;0.50;;
61330;SDS011;71993;52.478;-1.918;2024-02-04T02:20:05;0.35;;;0.35;;
61330;SDS011;71993;52.478;-1.918;2024-02-04T02:22:38;0.80;;;0.50;;
61330;SDS011;71993;52.478;-1.918;2024-02-04T02:25:15;0.50;;;0.50;;
61330;SDS011;71993;52.478;-1.918;2024-02-04T02:27:47;0.60;;;0.40;;
61330;SDS011;71993;52.478;-1.918;2024-02-04T02:30:18;0.95;;;0.50;;
61330;SDS011;71993;52.478;-1.918;2024-02-04T02:32:50;0.43;;;0.43;;
61330;SDS011;71993;52.478;-1.918;2024-02-04T02:35:21;0.55;;;0.45;;
61330;SDS011;71993;52.478;-1.918;2024-02-04T02:37:56;0.55;;;0.40;;
61330;SDS011;71993;52.478;-1.918;2024-02-04T02:40:34;0.43;;;0.43;;
61330;SDS011;71993;52.478;-1.918;2024-02-04T02:43:10;0.45;;;0.40;;
61330;SDS011;71993;52.478;-1.918;2024-02-04T02:45:42;1.25;;;0.30;;
61330;SDS011;71993;52.478;-1.918;2024-02-04T02:48:11;0.28;;;0.28;;
61330;SDS011;71993;52.478;-1.918;2024-02-04T02:50:42;0.60;;;0.40;;
61330;SDS011;71993;52.478;-1.918;2024-02-04T02:53:14;0.95;;;0.40;;
61330;SDS011;71993;52.478;-1.918;2024-02-04T02:55:49;0.57;;;0.50;;
61330;SDS011;71993;52.478;-1.918;2024-02-04T02:58:20;1.33;;;0.40;;
61330;SDS011;71993;52.478;-1.918;2024-02-04T03:00:51;1.20;;;0.40;;
61330;SDS011;71993;52.478;-1.918;2024-02-04T03:03:24;0.55;;;0.40;;
61330;SDS011;71993;52.478;-1.918;2024-02-04T03:05:55;0.60;;;0.50;;
61330;SDS011;71993;52.478;-1.918;2024-02-04T03:08:27;0.40;;;0.40;;
61330;SDS011;71993;52.478;-1.918;2024-02-04T03:11:05;1.05;;;0.43;;
61330;SDS011;71993;52.478;-1.918;2024-02-04T03:13:39;0.40;;;0.30;;
61330;SDS011;71993;52.478;-1.918;2024-02-04T03:16:14;0.50;;;0.40;;
61330;SDS011;71993;52.478;-1.918;2024-02-04T03:18:51;0.43;;;0.43;;
61330;SDS011;71993;52.478;-1.918;2024-02-04T03:21:24;0.93;;;0.40;;
61330;SDS011;71993;52.478;-1.918;2024-02-04T03:24:01;1.23;;;0.40;;
61330;SDS011;71993;52.478;-1.918;2024-02-04T03:26:37;1.65;;;0.38;;
61330;SDS011;71993;52.478;-1.918;2024-02-04T03:29:25;0.52;;;0.40;;
61330;SDS011;71993;52.478;-1.918;2024-02-04T03:32:04;1.45;;;0.40;;
61330;SDS011;71993;52.478;-1.918;2024-02-04T03:34:41;0.40;;;0.38;;
61330;SDS011;71993;52.478;-1.918;2024-02-04T03:37:25;0.40;;;0.30;;
61330;SDS011;71993;52.478;-1.918;2024-02-04T03:39:54;0.30;;;0.30;;
61330;SDS011;71993;52.478;-1.918;2024-02-04T03:42:40;1.23;;;0.30;;
61330;SDS011;71993;52.478;-1.918;2024-02-04T03:45:24;1.15;;;0.32;;
61330;SDS011;71993;52.478;-1.918;2024-02-04T03:48:08;2.33;;;0.43;;
61330;SDS011;71993;52.478;-1.918;2024-02-04T03:50:51;0.30;;;0.30;;
61330;SDS011;71993;52.478;-1.918;2024-02-04T03:53:35;2.55;;;0.43;;
61330;SDS011;71993;52.478;-1.918;2024-02-04T03:56:19;0.32;;;0.30;;
61330;SDS011;71993;52.478;-1.918;2024-02-04T03:59:05;0.40;;;0.32;;
61330;SDS011;71993;52.478;-1.918;2024-02-04T04:01:51;0.28;;;0.28;;
61330;SDS011;71993;52.478;-1.918;2024-02-04T04:04:35;1.75;;;0.40;;
61330;SDS011;71993;52.478;-1.918;2024-02-04T04:07:19;0.35;;;0.22;;
61330;SDS011;71993;52.478;-1.918;2024-02-04T04:10:03;0.30;;;0.30;;
61330;SDS011;71993;52.478;-1.918;2024-02-04T04:12:47;1.10;;;0.32;;
61330;SDS011;71993;52.478;-1.918;2024-02-04T04:15:33;0.20;;;0.20;;
61330;SDS011;71993;52.478;-1.918;2024-02-04T04:18:17;1.75;;;0.47;;
61330;SDS011;71993;52.478;-1.918;2024-02-04T04:21:01;0.30;;;0.30;;
61330;SDS011;71993;52.478;-1.918;2024-02-04T04:23:44;0.47;;;0.30;;
61330;SDS011;71993;52.478;-1.918;2024-02-04T04:26:28;2.05;;;0.40;;
61330;SDS011;71993;52.478;-1.918;2024-02-04T04:29:12;0.77;;;0.40;;
61330;SDS011;71993;52.478;-1.918;2024-02-04T04:31:59;0.40;;;0.40;;
61330;SDS011;71993;52.478;-1.918;2024-02-04T04:34:43;0.28;;;0.28;;
61330;SDS011;71993;52.478;-1.918;2024-02-04T04:37:26;2.47;;;0.30;;
61330;SDS011;71993;52.478;-1.918;2024-02-04T04:40:10;0.50;;;0.30;;
61330;SDS011;71993;52.478;-1.918;2024-02-04T04:42:54;0.63;;;0.40;;
61330;SDS011;71993;52.478;-1.918;2024-02-04T04:45:38;1.33;;;0.30;;
61330;SDS011;71993;52.478;-1.918;2024-02-04T04:48:24;0.30;;;0.30;;
61330;SDS011;71993;52.478;-1.918;2024-02-04T04:51:08;0.57;;;0.30;;
61330;SDS011;71993;52.478;-1.918;2024-02-04T04:53:52;0.25;;;0.25;;
61330;SDS011;71993;52.478;-1.918;2024-02-04T04:56:37;0.60;;;0.38;;
61330;SDS011;71993;52.478;-1.918;2024-02-04T04:59:21;0.65;;;0.32;;
61330;SDS011;71993;52.478;-1.918;2024-02-04T05:02:05;0.65;;;0.38;;
61330;SDS011;71993;52.478;-1.918;2024-02-04T05:04:41;1.00;;;0.25;;
61330;SDS011;71993;52.478;-1.918;2024-02-04T05:07:12;0.60;;;0.40;;
61330;SDS011;71993;52.478;-1.918;2024-02-04T05:09:43;0.30;;;0.30;;
61330;SDS011;71993;52.478;-1.918;2024-02-04T05:12:13;0.85;;;0.30;;
61330;SDS011;71993;52.478;-1.918;2024-02-04T05:14:44;1.85;;;0.30;;
61330;SDS011;71993;52.478;-1.918;2024-02-04T05:17:15;0.20;;;0.20;;
61330;SDS011;71993;52.478;-1.918;2024-02-04T05:19:48;2.88;;;0.30;;
61330;SDS011;71993;52.478;-1.918;2024-02-04T05:22:19;0.85;;;0.38;;
61330;SDS011;71993;52.478;-1.918;2024-02-04T05:24:49;0.22;;;0.20;;
61330;SDS011;71993;52.478;-1.918;2024-02-04T05:27:20;0.30;;;0.28;;
61330;SDS011;71993;52.478;-1.918;2024-02-04T05:29:50;0.22;;;0.20;;
61330;SDS011;71993;52.478;-1.918;2024-02-04T05:32:21;1.33;;;0.30;;
61330;SDS011;71993;52.478;-1.918;2024-02-04T05:34:54;1.95;;;0.55;;
61330;SDS011;71993;52.478;-1.918;2024-02-04T05:37:25;0.50;;;0.40;;
61330;SDS011;71993;52.478;-1.918;2024-02-04T05:39:55;2.25;;;0.35;;
61330;SDS011;71993;52.478;-1.918;2024-02-04T05:42:26;0.50;;;0.40;;
61330;SDS011;71993;52.478;-1.918;2024-02-04T05:44:56;0.75;;;0.30;;
61330;SDS011;71993;52.478;-1.918;2024-02-04T05:47:27;1.38;;;0.30;;
61330;SDS011;71993;52.478;-1.918;2024-02-04T05:50:00;0.30;;;0.30;;
61330;SDS011;71993;52.478;-1.918;2024-02-04T05:52:31;0.73;;;0.20;;
61330;SDS011;71993;52.478;-1.918;2024-02-04T05:55:01;1.40;;;0.20;;
61330;SDS011;71993;52.478;-1.918;2024-02-04T05:57:32;1.25;;;0.28;;
61330;SDS011;71993;52.478;-1.918;2024-02-04T06:00:02;0.60;;;0.28;;
61330;SDS011;71993;52.478;-1.918;2024-02-04T06:02:36;0.35;;;0.35;;
61330;SDS011;71993;52.478;-1.918;2024-02-04T06:05:11;0.50;;;0.20;;
61330;SDS011;71993;52.478;-1.918;2024-02-04T06:07:42;0.20;;;0.20;;
61330;SDS011;71993;52.478;-1.918;2024-02-04T06:10:13;0.20;;;0.20;;
61330;SDS011;71993;52.478;-1.918;2024-02-04T06:12:46;2.47;;;0.30;;
61330;SDS011;71993;52.478;-1.918;2024-02-04T06:15:16;0.30;;;0.20;;
61330;SDS011;71993;52.478;-1.918;2024-02-04T06:17:48;0.20;;;0.20;;
61330;SDS011;71993;52.478;-1.918;2024-02-04T06:20:21;0.20;;;0.20;;
61330;SDS011;71993;52.478;-1.918;2024-02-04T06:22:52;0.20;;;0.20;;
61330;SDS011;71993;52.478;-1.918;2024-02-04T06:25:22;0.20;;;0.20;;
61330;SDS011;71993;52.478;-1.918;2024-02-04T06:27:54;0.30;;;0.30;;
61330;SDS011;71993;52.478;-1.918;2024-02-04T06:30:24;0.30;;;0.30;;
61330;SDS011;71993;52.478;-1.918;2024-02-04T06:32:55;0.35;;;0.30;;
61330;SDS011;71993;52.478;-1.918;2024-02-04T06:35:29;0.32;;;0.32;;
61330;SDS011;71993;52.478;-1.918;2024-02-04T06:38:01;1.60;;;0.30;;
61330;SDS011;71993;52.478;-1.918;2024-02-04T06:40:31;0.20;;;0.20;;
61330;SDS011;71993;52.478;-1.918;2024-02-04T06:43:02;0.20;;;0.20;;
61330;SDS011;71993;52.478;-1.918;2024-02-04T06:45:33;0.52;;;0.20;;
61330;SDS011;71993;52.478;-1.918;2024-02-04T06:48:05;0.30;;;0.30;;
61330;SDS011;71993;52.478;-1.918;2024-02-04T06:50:39;1.60;;;0.30;;
61330;SDS011;71993;52.478;-1.918;2024-02-04T06:53:13;1.05;;;0.20;;
61330;SDS011;71993;52.478;-1.918;2024-02-04T06:55:43;0.20;;;0.20;;
61330;SDS011;71993;52.478;-1.918;2024-02-04T06:58:14;0.20;;;0.20;;
61330;SDS011;71993;52.478;-1.918;2024-02-04T07:00:45;0.20;;;0.20;;
61330;SDS011;71993;52.478;-1.918;2024-02-04T07:03:16;1.52;;;0.30;;
61330;SDS011;71993;52.478;-1.918;2024-02-04T07:05:49;1.15;;;0.25;;
61330;SDS011;71993;52.478;-1.918;2024-02-04T07:08:20;0.28;;;0.20;;
61330;SDS011;71993;52.478;-1.918;2024-02-04T07:10:50;0.28;;;0.20;;
61330;SDS011;71993;52.478;-1.918;2024-02-04T07:13:21;0.20;;;0.20;;
61330;SDS011;71993;52.478;-1.918;2024-02-04T07:15:51;0.20;;;0.20;;
61330;SDS011;71993;52.478;-1.918;2024-02-04T07:18:22;0.30;;;0.30;;
61330;SDS011;71993;52.478;-1.918;2024-02-04T07:20:55;0.43;;;0.30;;
61330;SDS011;71993;52.478;-1.918;2024-02-04T07:23:25;0.10;;;0.10;;
61330;SDS011;71993;52.478;-1.918;2024-02-04T07:25:56;0.40;;;0.20;;
61330;SDS011;71993;52.478;-1.918;2024-02-04T07:28:26;0.25;;;0.20;;
61330;SDS011;71993;52.478;-1.918;2024-02-04T07:30:57;2.72;;;0.20;;
61330;SDS011;71993;52.478;-1.918;2024-02-04T07:33:27;0.20;;;0.20;;
61330;SDS011;71993;52.478;-1.918;2024-02-04T07:36:01;0.30;;;0.15;;
61330;SDS011;71993;52.478;-1.918;2024-02-04T07:38:34;0.15;;;0.15;;
61330;SDS011;71993;52.478;-1.918;2024-02-04T07:41:05;0.20;;;0.20;;
61330;SDS011;71993;52.478;-1.918;2024-02-04T07:43:37;1.75;;;0.30;;
61330;SDS011;71993;52.478;-1.918;2024-02-04T07:46:08;0.30;;;0.30;;
61330;SDS011;71993;52.478;-1.918;2024-02-04T07:48:38;0.20;;;0.17;;
61330;SDS011;71993;52.478;-1.918;2024-02-04T07:51:09;0.45;;;0.30;;
61330;SDS011;71993;52.478;-1.918;2024-02-04T07:53:39;0.25;;;0.20;;
61330;SDS011;71993;52.478;-1.918;2024-02-04T07:56:10;0.20;;;0.20;;
61330;SDS011;71993;52.478;-1.918;2024-02-04T07:58:41;0.43;;;0.30;;
61330;SDS011;71993;52.478;-1.918;2024-02-04T08:01:11;1.60;;;0.20;;
61330;SDS011;71993;52.478;-1.918;2024-02-04T08:03:43;0.20;;;0.20;;
61330;SDS011;71993;52.478;-1.918;2024-02-04T08:06:16;0.30;;;0.20;;
61330;SDS011;71993;52.478;-1.918;2024-02-04T08:08:47;0.38;;;0.30;;
61330;SDS011;71993;52.478;-1.918;2024-02-04T08:11:18;0.63;;;0.10;;
61330;SDS011;71993;52.478;-1.918;2024-02-04T08:13:48;0.50;;;0.28;;
61330;SDS011;71993;52.478;-1.918;2024-02-04T08:16:19;0.52;;;0.20;;
61330;SDS011;71993;52.478;-1.918;2024-02-04T08:18:50;0.40;;;0.20;;
61330;SDS011;71993;52.478;-1.918;2024-02-04T08:21:23;0.35;;;0.25;;
61330;SDS011;71993;52.478;-1.918;2024-02-04T08:23:54;0.77;;;0.30;;
61330;SDS011;71993;52.478;-1.918;2024-02-04T08:26:24;0.20;;;0.20;;
61330;SDS011;71993;52.478;-1.918;2024-02-04T08:28:55;0.10;;;0.10;;
61330;SDS011;71993;52.478;-1.918;2024-02-04T08:31:25;1.95;;;0.30;;
61330;SDS011;71993;52.478;-1.918;2024-02-04T08:33:55;0.32;;;0.22;;
61330;SDS011;71993;52.478;-1.918;2024-02-04T08:36:29;0.20;;;0.20;;
61330;SDS011;71993;52.478;-1.918;2024-02-04T08:39:00;0.32;;;0.20;;
61330;SDS011;71993;52.478;-1.918;2024-02-04T08:41:31;1.00;;;0.20;;
61330;SDS011;71993;52.478;-1.918;2024-02-04T08:44:01;0.47;;;0.20;;
61330;SDS011;71993;52.478;-1.918;2024-02-04T08:46:32;0.20;;;0.20;;
61330;SDS011;71993;52.478;-1.918;2024-02-04T08:49:02;1.33;;;0.40;;
61330;SDS011;71993;52.478;-1.918;2024-02-04T08:51:35;0.57;;;0.30;;
61330;SDS011;71993;52.478;-1.918;2024-02-04T08:54:06;0.20;;;0.20;;
61330;SDS011;71993;52.478;-1.918;2024-02-04T08:56:36;2.05;;;0.28;;
61330;SDS011;71993;52.478;-1.918;2024-02-04T08:59:07;3.53;;;0.25;;
61330;SDS011;71993;52.478;-1.918;2024-02-04T09:01:37;3.80;;;0.40;;
61330;SDS011;71993;52.478;-1.918;2024-02-04T09:04:08;0.40;;;0.30;;
61330;SDS011;71993;52.478;-1.918;2024-02-04T09:06:41;0.47;;;0.22;;
61330;SDS011;71993;52.478;-1.918;2024-02-04T09:09:12;0.98;;;0.22;;
61330;SDS011;71993;52.478;-1.918;2024-02-04T09:11:42;0.40;;;0.30;;
61330;SDS011;71993;52.478;-1.918;2024-02-04T09:14:13;1.27;;;0.22;;
61330;SDS011;71993;52.478;-1.918;2024-02-04T09:16:43;0.15;;;0.15;;
61330;SDS011;71993;52.478;-1.918;2024-02-04T09:19:14;0.38;;;0.30;;
61330;SDS011;71993;52.478;-1.918;2024-02-04T09:21:47;0.30;;;0.30;;
61330;SDS011;71993;52.478;-1.918;2024-02-04T09:24:17;0.32;;;0.30;;
61330;SDS011;71993;52.478;-1.918;2024-02-04T09:26:48;0.40;;;0.40;;
61330;SDS011;71993;52.478;-1.918;2024-02-04T09:29:19;0.20;;;0.20;;
61330;SDS011;71993;52.478;-1.918;2024-02-04T09:31:50;0.25;;;0.25;;
61330;SDS011;71993;52.478;-1.918;2024-02-04T09:34:21;1.30;;;0.30;;
61330;SDS011;71993;52.478;-1.918;2024-02-04T09:36:54;8.73;;;0.95;;
61330;SDS011;71993;52.478;-1.918;2024-02-04T09:39:25;3.35;;;0.50;;
61330;SDS011;71993;52.478;-1.918;2024-02-04T09:41:57;2.60;;;0.50;;
61330;SDS011;71993;52.478;-1.918;2024-02-04T09:44:27;0.52;;;0.50;;
61330;SDS011;71993;52.478;-1.918;2024-02-04T09:46:59;0.90;;;0.32;;
61330;SDS011;71993;52.478;-1.918;2024-02-04T09:49:30;1.75;;;0.50;;
61330;SDS011;71993;52.478;-1.918;2024-02-04T09:52:04;0.88;;;0.50;;
61330;SDS011;71993;52.478;-1.918;2024-02-04T09:54:41;0.40;;;0.40;;
61330;SDS011;71993;52.478;-1.918;2024-02-04T09:57:14;1.58;;;0.35;;
61330;SDS011;71993;52.478;-1.918;2024-02-04T09:59:44;0.73;;;0.40;;
61330;SDS011;71993;52.478;-1.918;2024-02-04T10:02:15;1.67;;;0.52;;
61330;SDS011;71993;52.478;-1.918;2024-02-04T10:04:46;0.47;;;0.43;;
61330;SDS011;71993;52.478;-1.918;2024-02-04T10:07:19;0.82;;;0.50;;
61330;SDS011;71993;52.478;-1.918;2024-02-04T10:09:51;1.33;;;0.40;;
61330;SDS011;71993;52.478;-1.918;2024-02-04T10:12:22;1.42;;;0.60;;
61330;SDS011;71993;52.478;-1.918;2024-02-04T10:14:52;0.68;;;0.52;;
61330;SDS011;71993;52.478;-1.918;2024-02-04T10:17:23;0.63;;;0.43;;
61330;SDS011;71993;52.478;-1.918;2024-02-04T10:19:53;0.55;;;0.40;;
61330;SDS011;71993;52.478;-1.918;2024-02-04T10:22:27;0.55;;;0.40;;
61330;SDS011;71993;52.478;-1.918;2024-02-04T10:25:05;0.55;;;0.40;;
61330;SDS011;71993;52.478;-1.918;2024-02-04T10:27:35;1.15;;;0.43;;
61330;SDS011;71993;52.478;-1.918;2024-02-04T10:30:06;0.95;;;0.70;;
61330;SDS011;71993;52.478;-1.918;2024-02-04T10:32:37;0.80;;;0.50;;
61330;SDS011;71993;52.478;-1.918;2024-02-04T10:35:08;0.70;;;0.40;;
61330;SDS011;71993;52.478;-1.918;2024-02-04T10:37:41;1.23;;;0.40;;
61330;SDS011;71993;52.478;-1.918;2024-02-04T10:40:11;0.82;;;0.50;;
61330;SDS011;71993;52.478;-1.918;2024-02-04T10:42:42;2.03;;;0.70;;
61330;SDS011;71993;52.478;-1.918;2024-02-04T10:45:13;1.02;;;0.60;;
61330;SDS011;71993;52.478;-1.918;2024-02-04T10:47:49;2.10;;;0.50;;
61330;SDS011;71993;52.478;-1.918;2024-02-04T10:50:24;0.75;;;0.47;;
61330;SDS011;71993;52.478;-1.918;2024-02-04T10:52:57;1.05;;;0.50;;
61330;SDS011;71993;52.478;-1.918;2024-02-04T10:55:29;2.30;;;0.60;;
61330;SDS011;71993;52.478;-1.918;2024-02-04T10:58:00;0.80;;;0.55;;
61330;SDS011;71993;52.478;-1.918;2024-02-04T11:00:32;1.27;;;0.50;;
61330;SDS011;71993;52.478;-1.918;2024-02-04T11:03:03;1.30;;;0.60;;
61330;SDS011;71993;52.478;-1.918;2024-02-04T11:05:35;2.05;;;0.70;;
61330;SDS011;71993;52.478;-1.918;2024-02-04T11:08:09;1.67;;;0.77;;
61330;SDS011;71993;52.478;-1.918;2024-02-04T11:10:41;2.10;;;0.93;;
61330;SDS011;71993;52.478;-1.918;2024-02-04T11:13:11;3.90;;;2.38;;
61330;SDS011;71993;52.478;-1.918;2024-02-04T11:15:42;9.18;;;5.78;;
61330;SDS011;71993;52.478;-1.918;2024-02-04T11:23:56;216.02;;;149.68;;
61330;SDS011;71993;52.478;-1.918;2024-02-04T11:26:32;292.00;;;224.23;;
61330;SDS011;71993;52.478;-1.918;2024-02-04T11:29:05;321.58;;;249.85;;
61330;SDS011;71993;52.478;-1.918;2024-02-04T11:31:38;314.20;;;243.32;;
61330;SDS011;71993;52.478;-1.918;2024-02-04T11:34:08;306.52;;;237.85;;
61330;SDS011;71993;52.478;-1.918;2024-02-04T11:36:39;295.40;;;228.73;;
61330;SDS011;71993;52.478;-1.918;2024-02-04T11:39:17;274.75;;;212.63;;
61330;SDS011;71993;52.478;-1.918;2024-02-04T11:41:49;267.25;;;201.45;;
61330;SDS011;71993;52.478;-1.918;2024-02-04T11:44:20;259.80;;;195.23;;
61330;SDS011;71993;52.478;-1.918;2024-02-04T11:46:51;235.88;;;173.07;;
61330;SDS011;71993;52.478;-1.918;2024-02-04T11:49:24;231.35;;;166.40;;
61330;SDS011;71993;52.478;-1.918;2024-02-04T11:51:55;222.23;;;165.77;;
61330;SDS011;71993;52.478;-1.918;2024-02-04T11:54:29;214.23;;;150.23;;
61330;SDS011;71993;52.478;-1.918;2024-02-04T11:57:00;209.68;;;150.88;;
61330;SDS011;71993;52.478;-1.918;2024-02-04T11:59:30;189.38;;;137.55;;
61330;SDS011;71993;52.478;-1.918;2024-02-04T12:02:05;186.55;;;136.88;;
61330;SDS011;71993;52.478;-1.918;2024-02-04T12:04:36;184.98;;;130.10;;
61330;SDS011;71993;52.478;-1.918;2024-02-04T12:07:07;168.32;;;123.20;;
61330;SDS011;71993;52.478;-1.918;2024-02-04T12:09:41;166.57;;;119.85;;
61330;SDS011;71993;52.478;-1.918;2024-02-04T12:12:11;165.32;;;119.28;;
61330;SDS011;71993;52.478;-1.918;2024-02-04T12:14:43;158.57;;;112.90;;
61330;SDS011;71993;52.478;-1.918;2024-02-04T12:17:15;153.45;;;109.97;;
61330;SDS011;71993;52.478;-1.918;2024-02-04T12:19:47;140.88;;;100.13;;
61330;SDS011;71993;52.478;-1.918;2024-02-04T12:22:19;136.82;;;100.35;;
61330;SDS011;71993;52.478;-1.918;2024-02-04T12:24:54;140.73;;;98.43;;
61330;SDS011;71993;52.478;-1.918;2024-02-04T12:27:25;131.80;;;94.57;;
61330;SDS011;71993;52.478;-1.918;2024-02-04T12:29:57;118.22;;;86.57;;
61330;SDS011;71993;52.478;-1.918;2024-02-04T12:32:41;121.82;;;86.70;;
61330;SDS011;71993;52.478;-1.918;2024-02-04T12:35:24;114.88;;;81.05;;
61330;SDS011;71993;52.478;-1.918;2024-02-04T12:38:08;113.65;;;80.80;;
61330;SDS011;71993;52.478;-1.918;2024-02-04T12:41:00;109.40;;;77.50;;
61330;SDS011;71993;52.478;-1.918;2024-02-04T12:43:47;105.82;;;74.78;;
61330;SDS011;71993;52.478;-1.918;2024-02-04T12:46:31;101.68;;;69.55;;
61330;SDS011;71993;52.478;-1.918;2024-02-04T12:49:18;91.93;;;64.40;;
61330;SDS011;71993;52.478;-1.918;2024-02-04T12:52:05;94.88;;;67.40;;
61330;SDS011;71993;52.478;-1.918;2024-02-04T12:54:49;87.15;;;60.33;;
61330;SDS011;71993;52.478;-1.918;2024-02-04T12:57:36;82.60;;;57.63;;
61330;SDS011;71993;52.478;-1.918;2024-02-04T13:00:20;77.25;;;54.10;;
61330;SDS011;71993;52.478;-1.918;2024-02-04T13:03:04;79.63;;;54.92;;
61330;SDS011;71993;52.478;-1.918;2024-02-04T13:05:48;76.28;;;52.00;;
61330;SDS011;71993;52.478;-1.918;2024-02-04T13:08:32;71.80;;;48.95;;
61330;SDS011;71993;52.478;-1.918;2024-02-04T13:11:19;73.60;;;47.17;;
61330;SDS011;71993;52.478;-1.918;2024-02-04T13:14:05;61.38;;;43.28;;
61330;SDS011;71993;52.478;-1.918;2024-02-04T13:16:49;59.95;;;41.17;;
61330;SDS011;71993;52.478;-1.918;2024-02-04T13:19:32;58.10;;;40.72;;
61330;SDS011;71993;52.478;-1.918;2024-02-04T13:22:17;57.83;;;38.92;;
61330;SDS011;71993;52.478;-1.918;2024-02-04T13:25:00;53.85;;;37.25;;
61330;SDS011;71993;52.478;-1.918;2024-02-04T13:27:33;50.65;;;35.50;;
61330;SDS011;71993;52.478;-1.918;2024-02-04T13:30:07;44.47;;;32.10;;
61330;SDS011;71993;52.478;-1.918;2024-02-04T13:32:40;47.25;;;32.53;;
61330;SDS011;71993;52.478;-1.918;2024-02-04T13:35:24;42.55;;;29.50;;
61330;SDS011;71993;52.478;-1.918;2024-02-04T13:37:52;39.33;;;28.10;;
61330;SDS011;71993;52.478;-1.918;2024-02-04T13:40:36;40.92;;;28.00;;
61330;SDS011;71993;52.478;-1.918;2024-02-04T13:43:20;40.92;;;26.75;;
61330;SDS011;71993;52.478;-1.918;2024-02-04T13:46:06;36.00;;;24.65;;
61330;SDS011;71993;52.478;-1.918;2024-02-04T13:48:37;36.45;;;23.92;;
61330;SDS011;71993;52.478;-1.918;2024-02-04T13:51:07;34.03;;;23.90;;
61330;SDS011;71993;52.478;-1.918;2024-02-04T13:53:38;31.05;;;22.25;;
61330;SDS011;71993;52.478;-1.918;2024-02-04T13:56:08;29.38;;;21.17;;
61330;SDS011;71993;52.478;-1.918;2024-02-04T13:58:39;28.67;;;20.80;;
61330;SDS011;71993;52.478;-1.918;2024-02-04T14:01:12;28.90;;;19.98;;
61330;SDS011;71993;52.478;-1.918;2024-02-04T14:03:43;26.77;;;19.52;;
61330;SDS011;71993;52.478;-1.918;2024-02-04T14:06:14;24.13;;;16.85;;
61330;SDS011;71993;52.478;-1.918;2024-02-04T14:08:44;21.48;;;15.65;;
61330;SDS011;71993;52.478;-1.918;2024-02-04T14:11:15;20.40;;;15.15;;
61330;SDS011;71993;52.478;-1.918;2024-02-04T14:13:46;20.42;;;13.90;;
61330;SDS011;71993;52.478;-1.918;2024-02-04T14:16:19;20.48;;;14.02;;
61330;SDS011;71993;52.478;-1.918;2024-02-04T14:18:49;16.73;;;13.15;;
61330;SDS011;71993;52.478;-1.918;2024-02-04T14:21:19;17.30;;;12.43;;
61330;SDS011;71993;52.478;-1.918;2024-02-04T14:23:50;19.27;;;12.18;;
61330;SDS011;71993;52.478;-1.918;2024-02-04T14:26:20;16.67;;;10.50;;
61330;SDS011;71993;52.478;-1.918;2024-02-04T14:28:51;16.23;;;11.32;;
61330;SDS011;71993;52.478;-1.918;2024-02-04T14:31:24;14.63;;;10.43;;
61330;SDS011;71993;52.478;-1.918;2024-02-04T14:33:55;13.23;;;9.70;;
61330;SDS011;71993;52.478;-1.918;2024-02-04T14:36:26;11.82;;;8.88;;
61330;SDS011;71993;52.478;-1.918;2024-02-04T14:38:57;11.93;;;9.05;;
61330;SDS011;71993;52.478;-1.918;2024-02-04T14:41:28;12.90;;;8.98;;
61330;SDS011;71993;52.478;-1.918;2024-02-04T14:44:00;10.93;;;8.10;;
61330;SDS011;71993;52.478;-1.918;2024-02-04T14:46:33;12.85;;;8.02;;
61330;SDS011;71993;52.478;-1.918;2024-02-04T14:49:05;11.18;;;7.93;;
61330;SDS011;71993;52.478;-1.918;2024-02-04T14:51:37;11.18;;;7.57;;
61330;SDS011;71993;52.478;-1.918;2024-02-04T14:54:08;9.55;;;7.00;;
61330;SDS011;71993;52.478;-1.918;2024-02-04T14:56:39;9.73;;;6.78;;
61330;SDS011;71993;52.478;-1.918;2024-02-04T14:59:10;8.45;;;6.70;;
61330;SDS011;71993;52.478;-1.918;2024-02-04T15:01:47;8.38;;;6.20;;
61330;SDS011;71993;52.478;-1.918;2024-02-04T15:04:18;9.20;;;5.82;;
61330;SDS011;71993;52.478;-1.918;2024-02-04T15:06:48;9.15;;;6.10;;
61330;SDS011;71993;52.478;-1.918;2024-02-04T15:09:19;8.13;;;5.45;;